Time,TemperatureF,DewpointF,PressureIn,WindDirection,WindDirectionDegrees,WindSpeedMPH,WindSpeedGustMPH,Humidity,HourlyPrecipIn,Conditions,Clouds,dailyrainin,SoftwareType,DateUTC
2013-01-31 00:04:00,40.5,33.5,29.98,West,278,1.0,1.0,76,0.00,,SKC,0.00,VWS V14.01,2013-01-31 06:04:00,
2013-01-31 00:09:00,40.2,33.6,29.98,West,263,2.0,2.0,77,0.00,,SKC,0.00,VWS V14.01,2013-01-31 06:09:00,
2013-01-31 00:14:00,40.1,33.2,29.99,West,272,0.0,0.0,76,0.00,,SKC,0.00,VWS V14.01,2013-01-31 06:14:00,
2013-01-31 00:19:00,39.9,33.3,29.99,West,261,7.0,7.0,77,0.00,,SKC,0.00,VWS V14.01,2013-01-31 06:19:00,
2013-01-31 00:24:00,39.7,32.4,29.99,West,261,4.0,4.0,75,0.00,,SKC,0.00,VWS V14.01,2013-01-31 06:24:00,
2013-01-31 00:29:00,39.7,32.4,29.99,West,277,0.0,0.0,75,0.00,,SKC,0.00,VWS V14.01,2013-01-31 06:29:00,
2013-01-31 00:34:00,39.6,32.7,29.99,WSW,248,0.0,0.0,76,0.00,,SKC,0.00,VWS V14.01,2013-01-31 06:34:00,
2013-01-31 00:39:00,39.5,32.6,30.00,West,267,0.0,0.0,76,0.00,,SKC,0.00,VWS V14.01,2013-01-31 06:39:00,
2013-01-31 00:44:00,39.4,32.2,30.00,SW,223,4.0,5.0,75,0.00,,SKC,0.00,VWS V14.01,2013-01-31 06:44:00,
2013-01-31 00:49:00,39.3,32.0,30.00,West,268,0.0,1.0,75,0.00,,SKC,0.00,VWS V14.01,2013-01-31 06:49:00,
2013-01-31 00:54:00,39.2,32.0,30.01,West,269,2.0,2.0,75,0.00,,SKC,0.00,VWS V14.01,2013-01-31 06:54:00,
2013-01-31 00:59:00,39.0,31.8,30.01,West,278,1.0,1.0,75,0.00,,SKC,0.00,VWS V14.01,2013-01-31 06:59:00,
2013-01-31 01:04:00,38.7,31.5,30.02,WSW,257,2.0,2.0,75,0.00,,SKC,0.00,VWS V14.01,2013-01-31 07:04:00,
2013-01-31 01:10:00,38.6,31.4,30.02,NNW,346,1.0,3.0,75,0.00,,SKC,0.00,VWS V14.01,2013-01-31 07:10:00,
2013-01-31 01:15:00,38.5,31.3,30.02,West,269,2.0,3.0,75,0.00,,SKC,0.00,VWS V14.01,2013-01-31 07:15:00,
2013-01-31 01:20:00,38.3,31.4,30.02,NW,306,0.0,0.0,76,0.00,,SKC,0.00,VWS V14.01,2013-01-31 07:20:00,
2013-01-31 01:25:00,38.2,31.3,30.02,WNW,294,0.0,0.0,76,0.01,,SKC,0.01,VWS V14.01,2013-01-31 07:25:00,
2013-01-31 01:30:00,38.0,31.1,30.02,WNW,294,0.0,0.0,76,0.01,,SKC,0.01,VWS V14.01,2013-01-31 07:30:00,
2013-01-31 01:35:00,37.9,31.4,30.02,West,268,0.0,1.0,77,0.01,,SKC,0.01,VWS V14.01,2013-01-31 07:35:00,
2013-01-31 01:41:00,37.6,31.1,30.02,WSW,256,1.0,2.0,77,0.01,,SKC,0.01,VWS V14.01,2013-01-31 07:41:00,
2013-01-31 01:46:00,37.3,31.1,30.02,WSW,257,0.0,1.0,78,0.01,,SKC,0.01,VWS V14.01,2013-01-31 07:46:00,
2013-01-31 01:51:00,37.0,30.8,30.02,West,269,2.0,2.0,78,0.01,,SKC,0.01,VWS V14.01,2013-01-31 07:51:00,
2013-01-31 01:56:00,36.8,30.6,30.02,West,267,0.0,0.0,78,0.01,,SKC,0.01,VWS V14.01,2013-01-31 07:56:00,
2013-01-31 02:01:00,36.6,30.4,30.02,West,267,0.0,0.0,78,0.01,,SKC,0.01,VWS V14.01,2013-01-31 08:01:00,
2013-01-31 02:06:00,36.5,30.0,30.02,West,281,0.0,0.0,77,0.01,,SKC,0.01,VWS V14.01,2013-01-31 08:06:00,
2013-01-31 02:11:00,36.5,29.7,30.02,West,280,1.0,1.0,76,0.01,,SKC,0.01,VWS V14.01,2013-01-31 08:11:00,
2013-01-31 02:16:00,36.5,29.7,30.02,West,263,0.0,1.0,76,0.01,,SKC,0.01,VWS V14.01,2013-01-31 08:16:00,
2013-01-31 02:21:00,36.5,29.7,30.02,West,262,0.0,0.0,76,0.01,,SKC,0.01,VWS V14.01,2013-01-31 08:21:00,
2013-01-31 02:26:00,36.2,29.7,30.03,West,261,1.0,1.0,77,0.00,,SKC,0.01,VWS V14.01,2013-01-31 08:26:00,
2013-01-31 02:31:00,36.0,29.5,30.03,WSW,252,5.0,5.0,77,0.00,,SKC,0.01,VWS V14.01,2013-01-31 08:31:00,
2013-01-31 02:36:00,36.0,29.2,30.03,SW,236,0.0,0.0,76,0.00,,SKC,0.01,VWS V14.01,2013-01-31 08:36:00,
2013-01-31 02:41:00,35.9,29.1,30.03,SW,230,3.0,3.0,76,0.00,,SKC,0.01,VWS V14.01,2013-01-31 08:41:00,
2013-01-31 02:46:00,35.8,29.3,30.03,WSW,246,1.0,1.0,77,0.00,,SKC,0.01,VWS V14.01,2013-01-31 08:46:00,
2013-01-31 02:51:00,35.5,29.0,30.03,WSW,246,2.0,2.0,77,0.00,,SKC,0.01,VWS V14.01,2013-01-31 08:51:00,
2013-01-31 02:56:00,35.5,28.7,30.04,WNW,283,2.0,4.0,76,0.00,,SKC,0.01,VWS V14.01,2013-01-31 08:56:00,
2013-01-31 03:01:00,35.4,28.6,30.05,WNW,284,1.0,1.0,76,0.00,,SKC,0.01,VWS V14.01,2013-01-31 09:01:00,
2013-01-31 03:06:00,35.3,28.2,30.05,NNW,331,3.0,3.0,75,0.00,,SKC,0.01,VWS V14.01,2013-01-31 09:06:00,
2013-01-31 03:12:00,35.3,28.2,30.05,West,263,9.0,9.0,75,0.00,,SKC,0.01,VWS V14.01,2013-01-31 09:12:00,
2013-01-31 03:16:00,35.4,28.3,30.05,WSW,240,2.0,2.0,75,0.00,,SKC,0.01,VWS V14.01,2013-01-31 09:16:00,
2013-01-31 03:22:00,35.3,27.9,30.05,WSW,253,1.0,2.0,74,0.00,,SKC,0.01,VWS V14.01,2013-01-31 09:22:00,
2013-01-31 03:27:00,35.2,27.8,30.05,SW,214,0.0,0.0,74,0.00,,SKC,0.01,VWS V14.01,2013-01-31 09:27:00,
2013-01-31 03:32:00,35.2,27.8,30.05,West,269,0.0,2.0,74,0.00,,SKC,0.01,VWS V14.01,2013-01-31 09:32:00,
2013-01-31 03:37:00,35.1,27.7,30.06,West,266,0.0,0.0,74,0.00,,SKC,0.01,VWS V14.01,2013-01-31 09:37:00,
2013-01-31 03:42:00,35.0,27.6,30.05,WSW,252,1.0,1.0,74,0.00,,SKC,0.01,VWS V14.01,2013-01-31 09:42:00,
2013-01-31 03:47:00,34.7,27.6,30.05,WSW,249,1.0,2.0,75,0.00,,SKC,0.01,VWS V14.01,2013-01-31 09:47:00,
2013-01-31 03:52:00,34.4,27.6,30.06,WSW,250,2.0,2.0,76,0.00,,SKC,0.01,VWS V14.01,2013-01-31 09:52:00,
2013-01-31 03:57:00,34.4,28.0,30.06,WSW,249,0.0,1.0,77,0.00,,SKC,0.01,VWS V14.01,2013-01-31 09:57:00,
2013-01-31 04:02:00,34.2,27.4,30.06,WSW,250,1.0,1.0,76,0.00,,SKC,0.01,VWS V14.01,2013-01-31 10:02:00,
2013-01-31 04:07:00,34.1,27.7,30.06,WSW,248,0.0,1.0,77,0.00,,SKC,0.01,VWS V14.01,2013-01-31 10:07:00,
2013-01-31 04:12:00,34.0,27.6,30.07,SSE,167,0.0,1.0,77,0.00,,SKC,0.01,VWS V14.01,2013-01-31 10:12:00,
2013-01-31 04:18:00,34.0,27.6,30.06,WSW,252,7.0,7.0,77,0.00,,SKC,0.01,VWS V14.01,2013-01-31 10:18:00,
2013-01-31 04:23:00,34.1,27.3,30.07,WSW,253,1.0,2.0,76,0.00,,SKC,0.01,VWS V14.01,2013-01-31 10:23:00,
2013-01-31 04:28:00,34.2,27.1,30.07,WSW,248,0.0,5.0,75,0.00,,SKC,0.01,VWS V14.01,2013-01-31 10:28:00,
2013-01-31 04:33:00,34.1,27.3,30.08,WSW,248,0.0,1.0,76,0.00,,SKC,0.01,VWS V14.01,2013-01-31 10:33:00,
2013-01-31 04:38:00,34.0,27.2,30.08,WSW,248,0.0,0.0,76,0.00,,SKC,0.01,VWS V14.01,2013-01-31 10:38:00,
2013-01-31 04:43:00,33.9,27.1,30.08,WSW,248,0.0,0.0,76,0.00,,SKC,0.01,VWS V14.01,2013-01-31 10:43:00,
2013-01-31 04:48:00,33.6,27.2,30.08,WSW,248,0.0,0.0,77,0.00,,SKC,0.01,VWS V14.01,2013-01-31 10:48:00,
2013-01-31 04:53:00,33.4,27.3,30.07,WSW,248,0.0,0.0,78,0.00,,SKC,0.01,VWS V14.01,2013-01-31 10:53:00,
2013-01-31 04:58:00,33.2,27.4,30.07,WSW,248,0.0,0.0,79,0.00,,SKC,0.01,VWS V14.01,2013-01-31 10:58:00,
2013-01-31 05:03:00,32.9,27.4,30.08,WSW,248,0.0,0.0,80,0.00,,SKC,0.01,VWS V14.01,2013-01-31 11:03:00,
2013-01-31 05:08:00,32.5,27.3,30.08,WSW,248,0.0,0.0,81,0.00,,SKC,0.01,VWS V14.01,2013-01-31 11:08:00,
2013-01-31 05:13:00,32.3,26.8,30.08,WSW,248,0.0,1.0,80,0.00,,SKC,0.01,VWS V14.01,2013-01-31 11:13:00,
2013-01-31 05:18:00,32.3,27.1,30.08,WSW,248,1.0,1.0,81,0.00,,SKC,0.01,VWS V14.01,2013-01-31 11:18:00,
2013-01-31 05:23:00,32.2,27.0,30.08,WSW,248,1.0,1.0,81,0.00,,SKC,0.01,VWS V14.01,2013-01-31 11:23:00,
2013-01-31 05:28:00,32.1,26.9,30.08,WSW,248,0.0,2.0,81,0.00,,SKC,0.01,VWS V14.01,2013-01-31 11:28:00,
2013-01-31 05:33:00,32.0,27.1,30.08,WSW,248,1.0,3.0,82,0.00,,SKC,0.01,VWS V14.01,2013-01-31 11:33:00,
2013-01-31 05:38:00,32.1,27.2,30.08,WSW,248,0.0,1.0,82,0.00,,SKC,0.01,VWS V14.01,2013-01-31 11:38:00,
2013-01-31 05:43:00,32.2,27.3,30.08,WSW,249,0.0,0.0,82,0.00,,SKC,0.01,VWS V14.01,2013-01-31 11:43:00,
2013-01-31 05:48:00,32.1,27.2,30.08,WNW,286,0.0,4.0,82,0.00,,SKC,0.01,VWS V14.01,2013-01-31 11:48:00,
2013-01-31 05:53:00,32.0,27.4,30.08,WNW,286,0.0,1.0,83,0.00,,SKC,0.01,VWS V14.01,2013-01-31 11:53:00,
2013-01-31 05:58:00,31.8,27.2,30.08,West,273,0.0,1.0,83,0.00,,SKC,0.01,VWS V14.01,2013-01-31 11:58:00,
2013-01-31 06:03:00,31.7,27.1,30.09,WSW,250,1.0,2.0,83,0.00,,SKC,0.01,VWS V14.01,2013-01-31 12:03:00,
2013-01-31 06:08:00,31.9,27.0,30.09,SW,229,1.0,4.0,82,0.00,,SKC,0.01,VWS V14.01,2013-01-31 12:08:00,
2013-01-31 06:13:00,32.0,27.1,30.09,SW,229,0.0,0.0,82,0.00,,SKC,0.01,VWS V14.01,2013-01-31 12:13:00,
2013-01-31 06:18:00,32.0,27.1,30.09,SW,229,0.0,0.0,82,0.00,,SKC,0.01,VWS V14.01,2013-01-31 12:18:00,
2013-01-31 06:23:00,32.0,27.1,30.09,WSW,246,0.0,1.0,82,0.00,,SKC,0.01,VWS V14.01,2013-01-31 12:23:00,
2013-01-31 06:28:00,32.1,27.2,30.10,WSW,252,0.0,1.0,82,0.00,,SKC,0.01,VWS V14.01,2013-01-31 12:28:00,
2013-01-31 06:33:00,32.4,27.2,30.09,WSW,252,0.0,0.0,81,0.00,,SKC,0.01,VWS V14.01,2013-01-31 12:33:00,
2013-01-31 06:38:00,32.3,27.1,30.09,West,271,0.0,2.0,81,0.00,,SKC,0.01,VWS V14.01,2013-01-31 12:38:00,
2013-01-31 06:43:00,32.5,27.3,30.09,West,259,0.0,2.0,81,0.00,,SKC,0.01,VWS V14.01,2013-01-31 12:43:00,
2013-01-31 06:49:00,32.6,27.1,30.09,West,269,3.0,3.0,80,0.00,,SKC,0.01,VWS V14.01,2013-01-31 12:49:00,
2013-01-31 06:54:00,32.6,27.1,30.10,West,265,2.0,2.0,80,0.00,,SKC,0.01,VWS V14.01,2013-01-31 12:54:00,
2013-01-31 06:59:00,32.8,27.3,30.10,WSW,240,3.0,3.0,80,0.00,,SKC,0.01,VWS V14.01,2013-01-31 12:59:00,
2013-01-31 07:04:00,32.9,27.4,30.10,West,262,0.0,0.0,80,0.00,,SKC,0.01,VWS V14.01,2013-01-31 13:04:00,
2013-01-31 07:09:00,33.0,27.2,30.10,WNW,284,2.0,6.0,79,0.00,,SKC,0.01,VWS V14.01,2013-01-31 13:09:00,
2013-01-31 07:14:00,33.2,27.4,30.10,West,277,3.0,3.0,79,0.00,,SKC,0.01,VWS V14.01,2013-01-31 13:14:00,
2013-01-31 07:19:00,33.4,27.3,30.10,West,279,0.0,4.0,78,0.00,,SKC,0.01,VWS V14.01,2013-01-31 13:19:00,
2013-01-31 07:24:00,33.6,27.5,30.10,WSW,252,2.0,2.0,78,0.00,,SKC,0.01,VWS V14.01,2013-01-31 13:24:00,
2013-01-31 07:29:00,33.7,27.6,30.11,WSW,252,3.0,4.0,78,0.00,,SKC,0.01,VWS V14.01,2013-01-31 13:29:00,
2013-01-31 07:34:00,33.8,27.7,30.11,WSW,240,0.0,2.0,78,0.00,,SKC,0.01,VWS V14.01,2013-01-31 13:34:00,
2013-01-31 07:39:00,33.9,27.5,30.11,WSW,249,2.0,4.0,77,0.00,,SKC,0.01,VWS V14.01,2013-01-31 13:39:00,
2013-01-31 07:44:00,34.0,27.6,30.12,WSW,249,6.0,9.0,77,0.00,,SKC,0.01,VWS V14.01,2013-01-31 13:44:00,
2013-01-31 07:49:00,34.0,27.2,30.12,SSW,211,3.0,3.0,76,0.00,,SKC,0.01,VWS V14.01,2013-01-31 13:49:00,
2013-01-31 07:54:00,34.1,27.7,30.13,WSW,257,1.0,2.0,77,0.00,,SKC,0.01,VWS V14.01,2013-01-31 13:54:00,
2013-01-31 07:59:00,34.4,27.6,30.13,West,260,3.0,4.0,76,0.00,,SKC,0.01,VWS V14.01,2013-01-31 13:59:00,
2013-01-31 08:04:00,34.4,27.3,30.14,SSW,210,4.0,6.0,75,0.00,,SKC,0.01,VWS V14.01,2013-01-31 14:04:00,
2013-01-31 08:09:00,34.5,27.4,30.14,West,280,10.0,10.0,75,0.00,,SKC,0.01,VWS V14.01,2013-01-31 14:09:00,
2013-01-31 08:14:00,34.8,27.7,30.15,West,276,13.0,13.0,75,0.00,,SKC,0.01,VWS V14.01,2013-01-31 14:14:00,
2013-01-31 08:19:00,35.1,28.0,30.15,SW,226,2.0,5.0,75,0.00,,SKC,0.01,VWS V14.01,2013-01-31 14:19:00,
2013-01-31 08:24:00,35.2,27.4,30.15,WNW,299,6.0,11.0,73,0.00,,SKC,0.01,VWS V14.01,2013-01-31 14:24:00,
2013-01-31 08:29:00,35.4,27.6,30.16,WSW,248,2.0,4.0,73,0.00,,SKC,0.01,VWS V14.01,2013-01-31 14:29:00,
2013-01-31 08:34:00,35.7,27.6,30.16,West,269,7.0,7.0,72,0.00,,SKC,0.01,VWS V14.01,2013-01-31 14:34:00,
2013-01-31 08:40:00,35.9,27.4,30.16,WNW,290,4.0,6.0,71,0.00,,SKC,0.01,VWS V14.01,2013-01-31 14:40:00,
2013-01-31 08:45:00,36.2,27.4,30.16,West,275,1.0,3.0,70,0.00,,SKC,0.01,VWS V14.01,2013-01-31 14:45:00,
2013-01-31 08:50:00,36.5,27.7,30.16,SW,231,5.0,9.0,70,0.00,,SKC,0.01,VWS V14.01,2013-01-31 14:50:00,
2013-01-31 08:54:00,36.8,27.6,30.16,West,259,3.0,7.0,69,0.00,,SKC,0.01,VWS V14.01,2013-01-31 14:54:00,
2013-01-31 09:00:00,36.8,27.2,30.17,WNW,287,5.0,9.0,68,0.00,,SKC,0.01,VWS V14.01,2013-01-31 15:00:00,
2013-01-31 09:05:00,37.1,27.2,30.17,WNW,294,4.0,7.0,67,0.00,,SKC,0.01,VWS V14.01,2013-01-31 15:05:00,
2013-01-31 09:10:00,37.4,27.5,30.18,West,262,4.0,10.0,67,0.00,,SKC,0.01,VWS V14.01,2013-01-31 15:10:00,
2013-01-31 09:15:00,37.7,27.8,30.18,SSW,209,10.0,10.0,67,0.00,,SKC,0.01,VWS V14.01,2013-01-31 15:15:00,
2013-01-31 09:20:00,38.1,27.8,30.18,West,261,9.0,10.0,66,0.00,,SKC,0.01,VWS V14.01,2013-01-31 15:20:00,
2013-01-31 09:25:00,38.6,28.6,30.18,West,279,2.0,3.0,67,0.00,,SKC,0.01,VWS V14.01,2013-01-31 15:25:00,
2013-01-31 09:30:00,39.1,28.3,30.19,SW,236,4.0,5.0,65,0.00,,SKC,0.01,VWS V14.01,2013-01-31 15:30:00,
2013-01-31 09:35:00,39.3,29.3,30.19,NW,304,2.0,3.0,67,0.00,,SKC,0.01,VWS V14.01,2013-01-31 15:35:00,
2013-01-31 09:40:00,39.7,28.9,30.19,West,271,2.0,2.0,65,0.00,,SKC,0.01,VWS V14.01,2013-01-31 15:40:00,
2013-01-31 09:45:00,39.8,28.2,30.19,SW,231,1.0,2.0,63,0.00,,SKC,0.01,VWS V14.01,2013-01-31 15:45:00,
2013-01-31 09:50:00,40.2,28.6,30.19,WSW,256,4.0,5.0,63,0.00,,SKC,0.01,VWS V14.01,2013-01-31 15:50:00,
2013-01-31 09:55:00,40.2,27.8,30.19,West,274,7.0,10.0,61,0.00,,SKC,0.01,VWS V14.01,2013-01-31 15:55:00,
2013-01-31 10:00:00,40.2,27.8,30.18,WNW,283,1.0,3.0,61,0.00,,SKC,0.01,VWS V14.01,2013-01-31 16:00:00,
2013-01-31 10:05:00,40.8,28.4,30.19,West,274,7.0,11.0,61,0.00,,SKC,0.01,VWS V14.01,2013-01-31 16:05:00,
2013-01-31 10:10:00,40.6,27.8,30.19,West,271,4.0,4.0,60,0.00,,SKC,0.01,VWS V14.01,2013-01-31 16:10:00,
2013-01-31 10:16:00,41.0,28.2,30.19,WNW,291,2.0,3.0,60,0.00,,SKC,0.01,VWS V14.01,2013-01-31 16:16:00,
2013-01-31 10:21:00,41.1,29.1,30.19,SSW,210,4.0,4.0,62,0.00,,SKC,0.01,VWS V14.01,2013-01-31 16:21:00,
2013-01-31 10:26:00,41.2,28.0,30.19,West,263,6.0,11.0,59,0.00,,SKC,0.01,VWS V14.01,2013-01-31 16:26:00,
2013-01-31 10:31:00,41.0,27.8,30.19,WNW,283,0.0,2.0,59,0.00,,SKC,0.01,VWS V14.01,2013-01-31 16:31:00,
2013-01-31 10:36:00,41.3,28.5,30.19,West,261,11.0,11.0,60,0.00,,SKC,0.01,VWS V14.01,2013-01-31 16:36:00,
2013-01-31 10:41:00,41.8,27.7,30.19,WSW,248,2.0,5.0,57,0.00,,SKC,0.01,VWS V14.01,2013-01-31 16:41:00,
2013-01-31 10:46:00,42.0,27.9,30.19,WNW,292,5.0,5.0,57,0.00,,SKC,0.01,VWS V14.01,2013-01-31 16:46:00,
2013-01-31 10:51:00,42.5,28.8,30.19,WSW,245,3.0,6.0,58,0.00,,SKC,0.01,VWS V14.01,2013-01-31 16:51:00,
2013-01-31 10:56:00,43.0,29.2,30.19,WSW,257,4.0,4.0,58,0.00,,SKC,0.01,VWS V14.01,2013-01-31 16:56:00,
2013-01-31 11:01:00,43.2,29.0,30.19,WSW,244,3.0,6.0,57,0.00,,SKC,0.01,VWS V14.01,2013-01-31 17:01:00,
2013-01-31 11:06:00,43.2,28.1,30.18,South,186,3.0,5.0,55,0.00,,SKC,0.01,VWS V14.01,2013-01-31 17:06:00,
2013-01-31 11:11:00,44.0,29.3,30.18,West,277,3.0,5.0,56,0.00,,SKC,0.01,VWS V14.01,2013-01-31 17:11:00,
2013-01-31 11:16:00,43.8,28.2,30.18,WNW,282,4.0,7.0,54,0.00,,SKC,0.01,VWS V14.01,2013-01-31 17:16:00,
2013-01-31 11:21:00,43.7,29.0,30.18,SW,231,4.0,6.0,56,0.00,,SKC,0.01,VWS V14.01,2013-01-31 17:21:00,
2013-01-31 11:26:00,44.2,29.1,30.18,WNW,294,2.0,3.0,55,0.00,,SKC,0.01,VWS V14.01,2013-01-31 17:26:00,
2013-01-31 11:32:00,44.3,27.8,30.18,SW,233,5.0,5.0,52,0.00,,SKC,0.01,VWS V14.01,2013-01-31 17:32:00,
2013-01-31 11:37:00,44.6,29.0,30.18,WNW,291,3.0,6.0,54,0.00,,SKC,0.01,VWS V14.01,2013-01-31 17:37:00,
2013-01-31 11:42:00,45.0,28.5,30.18,West,272,4.0,6.0,52,0.00,,SKC,0.01,VWS V14.01,2013-01-31 17:42:00,
2013-01-31 11:47:00,45.4,29.3,30.17,West,265,3.0,3.0,53,0.00,,SKC,0.01,VWS V14.01,2013-01-31 17:47:00,
2013-01-31 11:52:00,46.1,29.0,30.17,WSW,242,3.0,4.0,51,0.00,,SKC,0.01,VWS V14.01,2013-01-31 17:52:00,
2013-01-31 11:57:00,46.4,29.8,30.17,West,272,1.0,11.0,52,0.00,,SKC,0.01,VWS V14.01,2013-01-31 17:57:00,
2013-01-31 12:02:00,46.6,29.0,30.16,WSW,254,5.0,5.0,50,0.00,,SKC,0.01,VWS V14.01,2013-01-31 18:02:00,
2013-01-31 12:07:00,47.0,30.3,30.16,SSW,200,3.0,3.0,52,0.00,,SKC,0.01,VWS V14.01,2013-01-31 18:07:00,
2013-01-31 12:12:00,47.3,29.6,30.16,SSW,200,1.0,1.0,50,0.00,,SKC,0.01,VWS V14.01,2013-01-31 18:12:00,
2013-01-31 12:17:00,47.5,28.8,30.16,SW,227,4.0,5.0,48,0.00,,SKC,0.01,VWS V14.01,2013-01-31 18:17:00,
2013-01-31 12:22:00,47.3,29.1,30.16,WSW,258,12.0,12.0,49,0.00,,SKC,0.01,VWS V14.01,2013-01-31 18:22:00,
2013-01-31 12:27:00,47.3,29.6,30.16,North,351,0.0,0.0,50,0.00,,SKC,0.01,VWS V14.01,2013-01-31 18:27:00,
2013-01-31 12:32:00,48.1,30.8,30.16,SE,142,2.0,5.0,51,0.00,,SKC,0.01,VWS V14.01,2013-01-31 18:32:00,
2013-01-31 12:37:00,48.7,29.9,30.15,SW,227,3.0,3.0,48,0.00,,SKC,0.01,VWS V14.01,2013-01-31 18:37:00,
2013-01-31 12:43:00,48.5,29.2,30.15,West,263,3.0,5.0,47,0.00,,SKC,0.01,VWS V14.01,2013-01-31 18:43:00,
2013-01-31 12:48:00,48.8,29.5,30.15,NE,47,6.0,6.0,47,0.00,,SKC,0.01,VWS V14.01,2013-01-31 18:48:00,
2013-01-31 12:53:00,49.0,29.7,30.15,SSE,152,3.0,3.0,47,0.00,,SKC,0.01,VWS V14.01,2013-01-31 18:53:00,
2013-01-31 12:58:00,49.1,29.8,30.14,NNW,334,2.0,4.0,47,0.01,,SKC,0.02,VWS V14.01,2013-01-31 18:58:00,
2013-01-31 13:03:00,49.1,29.2,30.14,SW,235,5.0,5.0,46,0.01,,SKC,0.02,VWS V14.01,2013-01-31 19:03:00,
2013-01-31 13:08:00,49.2,29.9,30.14,SW,214,7.0,7.0,47,0.01,,SKC,0.02,VWS V14.01,2013-01-31 19:08:00,
2013-01-31 13:13:00,49.5,30.1,30.14,WNW,294,2.0,2.0,47,0.01,,SKC,0.02,VWS V14.01,2013-01-31 19:13:00,
2013-01-31 13:18:00,49.9,30.0,30.14,WSW,242,6.0,6.0,46,0.01,,SKC,0.02,VWS V14.01,2013-01-31 19:18:00,
2013-01-31 13:23:00,49.8,29.3,30.14,North,5,0.0,0.0,45,0.01,,SKC,0.02,VWS V14.01,2013-01-31 19:23:00,
2013-01-31 13:28:00,49.6,29.1,30.14,WSW,242,0.0,1.0,45,0.01,,SKC,0.02,VWS V14.01,2013-01-31 19:28:00,
2013-01-31 13:33:00,49.7,29.8,30.14,West,261,6.0,6.0,46,0.01,,SKC,0.02,VWS V14.01,2013-01-31 19:33:00,
2013-01-31 13:38:00,49.9,29.4,30.14,WNW,293,3.0,3.0,45,0.01,,SKC,0.02,VWS V14.01,2013-01-31 19:38:00,
2013-01-31 13:43:00,50.5,30.0,30.14,NNE,15,4.0,4.0,45,0.01,,SKC,0.02,VWS V14.01,2013-01-31 19:43:00,
2013-01-31 13:48:00,51.0,30.4,30.14,ENE,67,2.0,5.0,45,0.01,,SKC,0.02,VWS V14.01,2013-01-31 19:48:00,
2013-01-31 13:54:00,51.3,30.7,30.14,WSW,257,2.0,4.0,45,0.01,,SKC,0.02,VWS V14.01,2013-01-31 19:54:00,
2013-01-31 13:59:00,50.9,29.2,30.14,NW,313,0.0,4.0,43,0.00,,SKC,0.02,VWS V14.01,2013-01-31 19:59:00,
2013-01-31 14:04:00,51.2,29.5,30.14,SSW,209,3.0,9.0,43,0.00,,SKC,0.02,VWS V14.01,2013-01-31 20:04:00,
2013-01-31 14:09:00,51.3,30.1,30.14,WNW,283,4.0,7.0,44,0.00,,SKC,0.02,VWS V14.01,2013-01-31 20:09:00,
2013-01-31 14:14:00,50.6,29.0,30.14,NW,311,2.0,3.0,43,0.00,,SKC,0.02,VWS V14.01,2013-01-31 20:14:00,
2013-01-31 14:19:00,50.3,29.2,30.14,NNW,338,6.0,7.0,44,0.00,,SKC,0.02,VWS V14.01,2013-01-31 20:19:00,
2013-01-31 14:24:00,50.4,29.3,30.14,West,272,4.0,5.0,44,0.00,,SKC,0.02,VWS V14.01,2013-01-31 20:24:00,
2013-01-31 14:29:00,50.4,29.9,30.14,West,268,0.0,2.0,45,0.00,,SKC,0.02,VWS V14.01,2013-01-31 20:29:00,
2013-01-31 14:34:00,51.0,31.0,30.14,SE,139,1.0,1.0,46,0.00,,SKC,0.02,VWS V14.01,2013-01-31 20:34:00,
2013-01-31 14:39:00,51.2,31.1,30.14,SSW,196,3.0,6.0,46,0.00,,SKC,0.02,VWS V14.01,2013-01-31 20:39:00,
2013-01-31 14:44:00,50.6,30.1,30.14,SW,231,0.0,1.0,45,0.00,,SKC,0.02,VWS V14.01,2013-01-31 20:44:00,
2013-01-31 14:49:00,50.9,30.3,30.14,SSW,194,4.0,6.0,45,0.00,,SKC,0.02,VWS V14.01,2013-01-31 20:49:00,
2013-01-31 14:54:00,50.8,30.8,30.14,WSW,240,2.0,4.0,46,0.00,,SKC,0.02,VWS V14.01,2013-01-31 20:54:00,
2013-01-31 14:59:00,51.1,30.0,30.14,SW,236,2.0,6.0,44,0.00,,SKC,0.02,VWS V14.01,2013-01-31 20:59:00,
2013-01-31 15:05:00,51.2,30.0,30.14,WSW,257,4.0,5.0,44,0.00,,SKC,0.02,VWS V14.01,2013-01-31 21:05:00,
2013-01-31 15:10:00,51.2,30.0,30.14,West,280,1.0,4.0,44,0.00,,SKC,0.02,VWS V14.01,2013-01-31 21:10:00,
2013-01-31 15:15:00,51.4,30.2,30.13,WSW,240,8.0,12.0,44,0.00,,SKC,0.02,VWS V14.01,2013-01-31 21:15:00,
2013-01-31 15:20:00,51.4,29.7,30.13,WNW,300,2.0,4.0,43,0.00,,SKC,0.02,VWS V14.01,2013-01-31 21:20:00,
2013-01-31 15:25:00,51.2,29.5,30.14,SW,233,3.0,12.0,43,0.00,,SKC,0.02,VWS V14.01,2013-01-31 21:25:00,
2013-01-31 15:30:00,50.9,29.8,30.13,SW,232,0.0,5.0,44,0.00,,SKC,0.02,VWS V14.01,2013-01-31 21:30:00,
2013-01-31 15:35:00,50.9,29.2,30.13,WSW,240,9.0,10.0,43,0.00,,SKC,0.02,VWS V14.01,2013-01-31 21:35:00,
2013-01-31 15:40:00,51.0,29.3,30.13,WSW,243,5.0,5.0,43,0.00,,SKC,0.02,VWS V14.01,2013-01-31 21:40:00,
2013-01-31 15:45:00,51.2,30.0,30.14,WSW,246,6.0,7.0,44,0.00,,SKC,0.02,VWS V14.01,2013-01-31 21:45:00,
2013-01-31 15:50:00,51.0,30.4,30.14,South,184,2.0,4.0,45,0.00,,SKC,0.02,VWS V14.01,2013-01-31 21:50:00,
2013-01-31 15:55:00,51.0,30.4,30.13,WSW,248,2.0,6.0,45,0.00,,SKC,0.02,VWS V14.01,2013-01-31 21:55:00,
2013-01-31 16:00:00,51.1,30.5,30.13,SW,231,1.0,6.0,45,0.00,,SKC,0.02,VWS V14.01,2013-01-31 22:00:00,
2013-01-31 16:05:00,51.0,30.4,30.14,SW,229,1.0,1.0,45,0.00,,SKC,0.02,VWS V14.01,2013-01-31 22:05:00,
2013-01-31 16:10:00,50.7,30.1,30.13,WSW,238,9.0,9.0,45,0.00,,SKC,0.02,VWS V14.01,2013-01-31 22:10:00,
2013-01-31 16:15:00,50.4,29.9,30.13,WNW,288,1.0,2.0,45,0.00,,SKC,0.02,VWS V14.01,2013-01-31 22:15:00,
2013-01-31 16:20:00,50.1,29.6,30.13,West,265,5.0,5.0,45,0.00,,SKC,0.02,VWS V14.01,2013-01-31 22:20:00,
2013-01-31 16:25:00,49.9,30.0,30.13,West,280,2.0,2.0,46,0.00,,SKC,0.02,VWS V14.01,2013-01-31 22:25:00,
2013-01-31 16:30:00,49.9,30.0,30.13,West,261,1.0,1.0,46,0.00,,SKC,0.02,VWS V14.01,2013-01-31 22:30:00,
2013-01-31 16:35:00,49.9,29.4,30.13,WSW,253,2.0,3.0,45,0.00,,SKC,0.02,VWS V14.01,2013-01-31 22:35:00,
2013-01-31 16:40:00,49.8,29.9,30.13,WSW,253,1.0,2.0,46,0.00,,SKC,0.02,VWS V14.01,2013-01-31 22:40:00,
2013-01-31 16:45:00,49.5,29.6,30.14,WSW,251,2.0,3.0,46,0.00,,SKC,0.02,VWS V14.01,2013-01-31 22:45:00,
2013-01-31 16:50:00,49.2,29.9,30.13,West,264,0.0,3.0,47,0.00,,SKC,0.02,VWS V14.01,2013-01-31 22:50:00,
2013-01-31 16:55:00,48.8,29.0,30.13,SW,236,2.0,6.0,46,0.00,,SKC,0.02,VWS V14.01,2013-01-31 22:55:00,
2013-01-31 17:00:00,48.7,29.9,30.14,SW,221,0.0,0.0,48,0.00,,SKC,0.02,VWS V14.01,2013-01-31 23:00:00,
2013-01-31 17:05:00,48.5,29.7,30.14,SW,235,1.0,2.0,48,0.00,,SKC,0.02,VWS V14.01,2013-01-31 23:05:00,
2013-01-31 17:10:00,48.3,29.5,30.14,SW,236,1.0,2.0,48,0.00,,SKC,0.02,VWS V14.01,2013-01-31 23:10:00,
2013-01-31 17:15:00,48.1,29.9,30.14,SW,236,2.0,2.0,49,0.00,,SKC,0.02,VWS V14.01,2013-01-31 23:15:00,
2013-01-31 17:21:00,47.8,29.6,30.14,WSW,248,0.0,2.0,49,0.00,,SKC,0.02,VWS V14.01,2013-01-31 23:21:00,
2013-01-31 17:26:00,47.6,29.9,30.14,WSW,248,0.0,0.0,50,0.00,,SKC,0.02,VWS V14.01,2013-01-31 23:26:00,
2013-01-31 17:31:00,47.3,30.1,30.14,WSW,246,0.0,0.0,51,0.00,,SKC,0.02,VWS V14.01,2013-01-31 23:31:00,
2013-01-31 17:36:00,46.8,30.6,30.14,WSW,247,0.0,0.0,53,0.00,,SKC,0.02,VWS V14.01,2013-01-31 23:36:00,
2013-01-31 17:41:00,46.3,30.1,30.14,WSW,247,0.0,1.0,53,0.00,,SKC,0.02,VWS V14.01,2013-01-31 23:41:00,
2013-01-31 17:46:00,45.9,29.8,30.14,WSW,247,0.0,0.0,53,0.00,,SKC,0.02,VWS V14.01,2013-01-31 23:46:00,
2013-01-31 17:51:00,45.5,29.8,30.14,WSW,247,0.0,0.0,54,0.00,,SKC,0.02,VWS V14.01,2013-01-31 23:51:00,
2013-01-31 17:56:00,45.1,29.9,30.15,WSW,247,0.0,0.0,55,0.00,,SKC,0.02,VWS V14.01,2013-01-31 23:56:00,
2013-01-31 18:01:00,44.8,30.1,30.15,WSW,248,0.0,0.0,56,0.00,,SKC,0.02,VWS V14.01,2013-02-01 00:01:00,
2013-01-31 18:06:00,44.4,29.7,30.15,WSW,247,0.0,0.0,56,0.00,,SKC,0.02,VWS V14.01,2013-02-01 00:06:00,
2013-01-31 18:11:00,44.1,29.9,30.15,WSW,248,0.0,0.0,57,0.00,,SKC,0.02,VWS V14.01,2013-02-01 00:11:00,
2013-01-31 18:16:00,43.7,30.3,30.15,WSW,247,0.0,1.0,59,0.00,,SKC,0.02,VWS V14.01,2013-02-01 00:16:00,
2013-01-31 18:21:00,43.3,30.4,30.15,WSW,247,0.0,0.0,60,0.00,,SKC,0.02,VWS V14.01,2013-02-01 00:21:00,
2013-01-31 18:26:00,43.0,29.2,30.15,WSW,248,0.0,0.0,58,0.00,,SKC,0.02,VWS V14.01,2013-02-01 00:26:00,
2013-01-31 18:31:00,42.9,29.6,30.14,WSW,247,0.0,0.0,59,0.00,,SKC,0.02,VWS V14.01,2013-02-01 00:31:00,
2013-01-31 18:36:00,42.7,30.6,30.15,WSW,246,0.0,0.0,62,0.00,,SKC,0.02,VWS V14.01,2013-02-01 00:36:00,
2013-01-31 18:41:00,42.6,29.7,30.15,WSW,246,0.0,0.0,60,0.00,,SKC,0.02,VWS V14.01,2013-02-01 00:41:00,
2013-01-31 18:46:00,42.7,29.8,30.15,WSW,247,0.0,0.0,60,0.00,,SKC,0.02,VWS V14.01,2013-02-01 00:46:00,
2013-01-31 18:51:00,42.6,30.1,30.15,WSW,247,0.0,0.0,61,0.00,,SKC,0.02,VWS V14.01,2013-02-01 00:51:00,
2013-01-31 18:56:00,42.4,29.9,30.15,WSW,247,0.0,0.0,61,0.00,,SKC,0.02,VWS V14.01,2013-02-01 00:56:00,
2013-01-31 19:01:00,42.1,30.0,30.15,WSW,247,0.0,0.0,62,0.00,,SKC,0.02,VWS V14.01,2013-02-01 01:01:00,
2013-01-31 19:07:00,41.8,29.8,30.15,WSW,246,0.0,0.0,62,0.00,,SKC,0.02,VWS V14.01,2013-02-01 01:07:00,
2013-01-31 19:12:00,41.6,30.7,30.15,WSW,247,0.0,0.0,65,0.00,,SKC,0.02,VWS V14.01,2013-02-01 01:12:00,
2013-01-31 19:17:00,41.2,30.0,30.16,WSW,247,0.0,0.0,64,0.00,,SKC,0.02,VWS V14.01,2013-02-01 01:17:00,
2013-01-31 19:22:00,41.1,29.5,30.15,WSW,247,0.0,1.0,63,0.00,,SKC,0.02,VWS V14.01,2013-02-01 01:22:00,
2013-01-31 19:27:00,41.2,29.6,30.15,WSW,247,0.0,0.0,63,0.00,,SKC,0.02,VWS V14.01,2013-02-01 01:27:00,
2013-01-31 19:32:00,41.2,29.6,30.15,WSW,248,0.0,1.0,63,0.00,,SKC,0.02,VWS V14.01,2013-02-01 01:32:00,
2013-01-31 19:37:00,41.3,29.7,30.16,WSW,246,0.0,0.0,63,0.00,,SKC,0.02,VWS V14.01,2013-02-01 01:37:00,
2013-01-31 19:42:00,41.3,29.7,30.16,WSW,247,0.0,0.0,63,0.00,,SKC,0.02,VWS V14.01,2013-02-01 01:42:00,
2013-01-31 19:47:00,41.1,29.9,30.15,WSW,246,0.0,0.0,64,0.00,,SKC,0.02,VWS V14.01,2013-02-01 01:47:00,
2013-01-31 19:52:00,41.0,32.0,30.15,WSW,248,0.0,0.0,70,0.00,,SKC,0.02,VWS V14.01,2013-02-01 01:52:00,
2013-01-31 19:57:00,40.8,29.6,30.16,WSW,247,0.0,0.0,64,0.00,,SKC,0.02,VWS V14.01,2013-02-01 01:57:00,
2013-01-31 20:02:00,40.7,29.5,30.15,WSW,246,0.0,0.0,64,0.00,,SKC,0.02,VWS V14.01,2013-02-01 02:02:00,
2013-01-31 20:07:00,40.9,29.3,30.15,WSW,247,0.0,0.0,63,0.00,,SKC,0.02,VWS V14.01,2013-02-01 02:07:00,
2013-01-31 20:12:00,41.1,29.9,30.15,WSW,248,0.0,0.0,64,0.00,,SKC,0.02,VWS V14.01,2013-02-01 02:12:00,
2013-01-31 20:17:00,41.1,30.6,30.16,WSW,247,0.0,0.0,66,0.00,,SKC,0.02,VWS V14.01,2013-02-01 02:17:00,
2013-01-31 20:22:00,40.8,30.7,30.16,WSW,247,0.0,0.0,67,0.00,,SKC,0.02,VWS V14.01,2013-02-01 02:22:00,
2013-01-31 20:27:00,40.4,30.3,30.16,WSW,248,0.0,0.0,67,0.00,,SKC,0.02,VWS V14.01,2013-02-01 02:27:00,
2013-01-31 20:32:00,40.1,29.7,30.16,WSW,247,0.0,0.0,66,0.00,,SKC,0.02,VWS V14.01,2013-02-01 02:32:00,
2013-01-31 20:37:00,39.9,29.5,30.16,WSW,246,0.0,0.0,66,0.00,,SKC,0.02,VWS V14.01,2013-02-01 02:37:00,
2013-01-31 20:42:00,39.9,29.5,30.16,WSW,246,0.0,0.0,66,0.00,,SKC,0.02,VWS V14.01,2013-02-01 02:42:00,
2013-01-31 20:47:00,40.0,29.2,30.17,WSW,246,1.0,1.0,65,0.00,,SKC,0.02,VWS V14.01,2013-02-01 02:47:00,
2013-01-31 20:52:00,40.1,29.3,30.17,WSW,247,0.0,0.0,65,0.00,,SKC,0.02,VWS V14.01,2013-02-01 02:52:00,
2013-01-31 20:57:00,40.3,29.5,30.17,WSW,246,0.0,0.0,65,0.00,,SKC,0.02,VWS V14.01,2013-02-01 02:57:00,
2013-01-31 21:02:00,40.5,29.7,30.17,WSW,248,1.0,1.0,65,0.00,,SKC,0.02,VWS V14.01,2013-02-01 03:02:00,
2013-01-31 21:07:00,40.7,29.9,30.17,WSW,247,0.0,0.0,65,0.00,,SKC,0.02,VWS V14.01,2013-02-01 03:07:00,
2013-01-31 21:12:00,40.7,29.5,30.17,WSW,247,0.0,0.0,64,0.00,,SKC,0.02,VWS V14.01,2013-02-01 03:12:00,
2013-01-31 21:17:00,40.7,29.5,30.18,WSW,247,0.0,0.0,64,0.00,,SKC,0.02,VWS V14.01,2013-02-01 03:17:00,
2013-01-31 21:22:00,40.7,29.5,30.18,WSW,247,0.0,2.0,64,0.00,,SKC,0.02,VWS V14.01,2013-02-01 03:22:00,
2013-01-31 21:27:00,40.9,29.7,30.18,WSW,248,0.0,0.0,64,0.00,,SKC,0.02,VWS V14.01,2013-02-01 03:27:00,
2013-01-31 21:32:00,41.0,29.8,30.19,WSW,246,1.0,2.0,64,0.00,,SKC,0.02,VWS V14.01,2013-02-01 03:32:00,
2013-01-31 21:38:00,41.0,29.8,30.19,WSW,248,0.0,0.0,64,0.00,,SKC,0.02,VWS V14.01,2013-02-01 03:38:00,
2013-01-31 21:43:00,40.8,29.6,30.19,WSW,249,0.0,0.0,64,0.00,,SKC,0.02,VWS V14.01,2013-02-01 03:43:00,
2013-01-31 21:48:00,40.6,29.8,30.19,WSW,244,0.0,2.0,65,0.00,,SKC,0.02,VWS V14.01,2013-02-01 03:48:00,
2013-01-31 21:53:00,40.4,29.6,30.19,WSW,242,0.0,0.0,65,0.00,,SKC,0.02,VWS V14.01,2013-02-01 03:53:00,
2013-01-31 21:58:00,40.3,29.5,30.18,WSW,242,0.0,0.0,65,0.00,,SKC,0.02,VWS V14.01,2013-02-01 03:58:00,
2013-01-31 22:03:00,40.2,29.4,30.18,WSW,242,0.0,0.0,65,0.00,,SKC,0.02,VWS V14.01,2013-02-01 04:03:00,
2013-01-31 22:08:00,40.1,29.3,30.18,WSW,242,0.0,0.0,65,0.00,,SKC,0.02,VWS V14.01,2013-02-01 04:08:00,
2013-01-31 22:13:00,40.0,29.2,30.19,WSW,242,0.0,0.0,65,0.00,,SKC,0.02,VWS V14.01,2013-02-01 04:13:00,
2013-01-31 22:18:00,40.0,29.2,30.19,WSW,242,0.0,0.0,65,0.00,,SKC,0.02,VWS V14.01,2013-02-01 04:18:00,
2013-01-31 22:23:00,40.0,29.2,30.19,WSW,242,0.0,0.0,65,0.00,,SKC,0.02,VWS V14.01,2013-02-01 04:23:00,
2013-01-31 22:28:00,40.1,29.3,30.19,WSW,242,0.0,0.0,65,0.00,,SKC,0.02,VWS V14.01,2013-02-01 04:28:00,
2013-01-31 22:33:00,40.1,29.3,30.19,WSW,242,0.0,0.0,65,0.00,,SKC,0.02,VWS V14.01,2013-02-01 04:33:00,
2013-01-31 22:38:00,40.0,29.6,30.18,WSW,242,0.0,0.0,66,0.00,,SKC,0.02,VWS V14.01,2013-02-01 04:38:00,
2013-01-31 22:43:00,39.9,29.5,30.18,SW,227,0.0,0.0,66,0.00,,SKC,0.02,VWS V14.01,2013-02-01 04:43:00,
2013-01-31 22:48:00,39.9,29.5,30.19,SW,227,0.0,0.0,66,0.00,,SKC,0.02,VWS V14.01,2013-02-01 04:48:00,
2013-01-31 22:53:00,39.8,29.4,30.18,SW,227,0.0,0.0,66,0.00,,SKC,0.02,VWS V14.01,2013-02-01 04:53:00,
2013-01-31 22:58:00,39.7,29.3,30.18,SW,226,0.0,0.0,66,0.00,,SKC,0.02,VWS V14.01,2013-02-01 04:58:00,
2013-01-31 23:00:00,39.7,29.3,30.19,SW,227,0.0,0.0,66,0.00,,SKC,0.02,VWS V14.01,2013-02-01 05:00:00,
2013-01-31 23:03:00,39.7,29.3,30.19,SW,227,2.0,2.0,66,0.00,,SKC,0.02,VWS V14.01,2013-02-01 05:03:00,
2013-01-31 23:08:00,39.6,29.2,30.18,SW,226,2.0,3.0,66,0.00,,SKC,0.02,VWS V14.01,2013-02-01 05:08:00,
2013-01-31 23:13:00,39.6,29.2,30.18,SW,227,0.0,1.0,66,0.00,,SKC,0.02,VWS V14.01,2013-02-01 05:13:00,
2013-01-31 23:18:00,39.5,29.1,30.18,SW,226,0.0,0.0,66,0.00,,SKC,0.02,VWS V14.01,2013-02-01 05:18:00,
2013-01-31 23:23:00,39.4,29.4,30.18,SW,227,1.0,1.0,67,0.00,,SKC,0.02,VWS V14.01,2013-02-01 05:23:00,
2013-01-31 23:28:00,39.3,29.3,30.18,SW,226,0.0,0.0,67,0.00,,SKC,0.02,VWS V14.01,2013-02-01 05:28:00,
2013-01-31 23:33:00,39.3,29.3,30.18,SW,226,0.0,2.0,67,0.00,,SKC,0.02,VWS V14.01,2013-02-01 05:33:00,
2013-01-31 23:38:00,39.3,29.3,30.18,SW,227,0.0,0.0,67,0.00,,SKC,0.02,VWS V14.01,2013-02-01 05:38:00,
2013-01-31 23:43:00,39.3,29.3,30.18,SW,226,0.0,0.0,67,0.00,,SKC,0.02,VWS V14.01,2013-02-01 05:43:00,
2013-01-31 23:48:00,39.3,29.3,30.18,SW,226,0.0,0.0,67,0.00,,SKC,0.02,VWS V14.01,2013-02-01 05:48:00,
2013-01-31 23:54:00,39.4,29.0,30.18,SW,227,0.0,0.0,66,0.00,,SKC,0.02,VWS V14.01,2013-02-01 05:54:00,
2013-01-31 23:59:00,39.5,29.1,30.17,SW,226,0.0,0.0,66,0.00,,SKC,0.02,VWS V14.01,2013-02-01 05:59:00,